sensor_id;sensor_type;location;lat;lon;timestamp;temperature;humidity
33903;DHT22;20194;50.950;5.346;2023-04-10T00:02:16;13.20;1.00
33903;DHT22;20194;50.950;5.346;2023-04-10T00:04:42;13.20;1.00
33903;DHT22;20194;50.950;5.346;2023-04-10T00:07:08;13.10;1.00
33903;DHT22;20194;50.950;5.346;2023-04-10T00:09:34;13.10;1.00
33903;DHT22;20194;50.950;5.346;2023-04-10T00:12:00;13.00;1.00
33903;DHT22;20194;50.950;5.346;2023-04-10T00:14:26;12.90;1.00
33903;DHT22;20194;50.950;5.346;2023-04-10T00:16:52;12.80;1.00
33903;DHT22;20194;50.950;5.346;2023-04-10T00:19:18;12.80;1.00
33903;DHT22;20194;50.950;5.346;2023-04-10T00:21:43;12.90;1.00
33903;DHT22;20194;50.950;5.346;2023-04-10T00:24:09;12.80;1.00
33903;DHT22;20194;50.950;5.346;2023-04-10T00:26:35;12.80;1.00
33903;DHT22;20194;50.950;5.346;2023-04-10T00:29:02;12.70;1.00
33903;DHT22;20194;50.950;5.346;2023-04-10T00:31:28;12.80;1.00
33903;DHT22;20194;50.950;5.346;2023-04-10T00:33:54;12.80;1.00
33903;DHT22;20194;50.950;5.346;2023-04-10T00:36:20;12.80;1.00
33903;DHT22;20194;50.950;5.346;2023-04-10T00:38:47;12.70;1.00
33903;DHT22;20194;50.950;5.346;2023-04-10T00:41:14;12.70;1.00
33903;DHT22;20194;50.950;5.346;2023-04-10T00:43:40;12.70;1.00
33903;DHT22;20194;50.950;5.346;2023-04-10T00:46:06;12.70;1.00
33903;DHT22;20194;50.950;5.346;2023-04-10T00:48:33;12.70;1.00
33903;DHT22;20194;50.950;5.346;2023-04-10T00:50:59;12.70;1.00
33903;DHT22;20194;50.950;5.346;2023-04-10T00:53:25;12.70;1.00
33903;DHT22;20194;50.950;5.346;2023-04-10T00:55:51;12.70;1.00
33903;DHT22;20194;50.950;5.346;2023-04-10T00:58:18;12.50;1.00
33903;DHT22;20194;50.950;5.346;2023-04-10T01:00:45;12.50;1.00
33903;DHT22;20194;50.950;5.346;2023-04-10T01:03:12;12.50;1.00
33903;DHT22;20194;50.950;5.346;2023-04-10T01:06:02;12.50;1.00
33903;DHT22;20194;50.950;5.346;2023-04-10T01:11:10;12.40;1.00
33903;DHT22;20194;50.950;5.346;2023-04-10T01:13:57;12.40;1.00
33903;DHT22;20194;50.950;5.346;2023-04-10T01:16:52;12.40;1.00
33903;DHT22;20194;50.950;5.346;2023-04-10T01:22:19;12.40;1.00
33903;DHT22;20194;50.950;5.346;2023-04-10T01:30:51;12.30;1.00
33903;DHT22;20194;50.950;5.346;2023-04-10T01:33:20;12.10;1.00
33903;DHT22;20194;50.950;5.346;2023-04-10T01:35:49;12.10;1.00
33903;DHT22;20194;50.950;5.346;2023-04-10T01:38:18;12.00;1.00
33903;DHT22;20194;50.950;5.346;2023-04-10T01:40:49;12.00;1.00
33903;DHT22;20194;50.950;5.346;2023-04-10T01:43:16;11.90;1.00
33903;DHT22;20194;50.950;5.346;2023-04-10T01:45:44;11.90;1.00
33903;DHT22;20194;50.950;5.346;2023-04-10T01:48:10;11.90;1.00
33903;DHT22;20194;50.950;5.346;2023-04-10T01:50:37;11.80;1.00
33903;DHT22;20194;50.950;5.346;2023-04-10T01:53:05;11.90;1.00
33903;DHT22;20194;50.950;5.346;2023-04-10T01:55:32;11.90;1.00
33903;DHT22;20194;50.950;5.346;2023-04-10T01:57:59;11.90;1.00
33903;DHT22;20194;50.950;5.346;2023-04-10T02:00:25;11.80;1.00
33903;DHT22;20194;50.950;5.346;2023-04-10T02:02:51;11.70;1.00
33903;DHT22;20194;50.950;5.346;2023-04-10T02:05:18;11.80;1.00
33903;DHT22;20194;50.950;5.346;2023-04-10T02:08:14;11.80;1.00
33903;DHT22;20194;50.950;5.346;2023-04-10T02:10:44;11.90;1.00
33903;DHT22;20194;50.950;5.346;2023-04-10T02:13:14;11.90;1.00
33903;DHT22;20194;50.950;5.346;2023-04-10T02:15:45;11.90;1.00
33903;DHT22;20194;50.950;5.346;2023-04-10T02:18:14;11.90;1.00
33903;DHT22;20194;50.950;5.346;2023-04-10T02:20:41;11.70;1.00
33903;DHT22;20194;50.950;5.346;2023-04-10T02:23:06;11.50;1.00
33903;DHT22;20194;50.950;5.346;2023-04-10T02:25:33;11.40;1.00
33903;DHT22;20194;50.950;5.346;2023-04-10T02:28:06;11.40;1.00
33903;DHT22;20194;50.950;5.346;2023-04-10T02:30:33;11.40;1.00
33903;DHT22;20194;50.950;5.346;2023-04-10T02:32:59;11.60;1.00
33903;DHT22;20194;50.950;5.346;2023-04-10T02:35:25;11.60;1.00
33903;DHT22;20194;50.950;5.346;2023-04-10T02:37:51;11.50;1.00
33903;DHT22;20194;50.950;5.346;2023-04-10T02:40:17;11.40;1.00
33903;DHT22;20194;50.950;5.346;2023-04-10T02:42:42;11.30;1.00
33903;DHT22;20194;50.950;5.346;2023-04-10T02:45:09;11.30;1.00
33903;DHT22;20194;50.950;5.346;2023-04-10T02:47:35;11.30;1.00
33903;DHT22;20194;50.950;5.346;2023-04-10T02:50:01;11.30;1.00
33903;DHT22;20194;50.950;5.346;2023-04-10T02:52:26;11.40;1.00
33903;DHT22;20194;50.950;5.346;2023-04-10T02:54:52;11.60;1.00
33903;DHT22;20194;50.950;5.346;2023-04-10T02:57:18;11.60;1.00
33903;DHT22;20194;50.950;5.346;2023-04-10T02:59:44;11.60;1.00
33903;DHT22;20194;50.950;5.346;2023-04-10T03:02:10;11.60;1.00
33903;DHT22;20194;50.950;5.346;2023-04-10T03:04:36;11.60;1.00
33903;DHT22;20194;50.950;5.346;2023-04-10T03:07:01;11.60;1.00
33903;DHT22;20194;50.950;5.346;2023-04-10T03:09:27;11.60;1.00
33903;DHT22;20194;50.950;5.346;2023-04-10T03:11:53;11.60;1.00
33903;DHT22;20194;50.950;5.346;2023-04-10T03:14:18;11.60;1.00
33903;DHT22;20194;50.950;5.346;2023-04-10T03:16:44;11.60;1.00
33903;DHT22;20194;50.950;5.346;2023-04-10T03:19:12;11.60;1.00
33903;DHT22;20194;50.950;5.346;2023-04-10T03:21:38;11.70;1.00
33903;DHT22;20194;50.950;5.346;2023-04-10T03:24:04;11.70;1.00
33903;DHT22;20194;50.950;5.346;2023-04-10T03:26:31;11.70;1.00
33903;DHT22;20194;50.950;5.346;2023-04-10T03:28:56;11.70;1.00
33903;DHT22;20194;50.950;5.346;2023-04-10T03:31:22;11.60;1.00
33903;DHT22;20194;50.950;5.346;2023-04-10T03:33:48;11.60;1.00
33903;DHT22;20194;50.950;5.346;2023-04-10T03:36:14;11.60;1.00
33903;DHT22;20194;50.950;5.346;2023-04-10T03:38:40;11.50;1.00
33903;DHT22;20194;50.950;5.346;2023-04-10T03:41:06;11.50;1.00
33903;DHT22;20194;50.950;5.346;2023-04-10T03:43:33;11.50;1.00
33903;DHT22;20194;50.950;5.346;2023-04-10T03:45:59;11.60;1.00
33903;DHT22;20194;50.950;5.346;2023-04-10T03:48:26;11.50;1.00
33903;DHT22;20194;50.950;5.346;2023-04-10T03:50:56;11.50;1.00
33903;DHT22;20194;50.950;5.346;2023-04-10T03:53:22;11.50;1.00
33903;DHT22;20194;50.950;5.346;2023-04-10T03:55:48;11.50;1.00
33903;DHT22;20194;50.950;5.346;2023-04-10T03:58:14;11.40;1.00
33903;DHT22;20194;50.950;5.346;2023-04-10T04:00:39;11.40;1.00
33903;DHT22;20194;50.950;5.346;2023-04-10T04:03:05;11.40;1.00
33903;DHT22;20194;50.950;5.346;2023-04-10T04:05:32;11.50;1.00
33903;DHT22;20194;50.950;5.346;2023-04-10T04:07:57;11.40;1.00
33903;DHT22;20194;50.950;5.346;2023-04-10T04:10:23;11.40;1.00
33903;DHT22;20194;50.950;5.346;2023-04-10T04:12:49;11.20;1.00
33903;DHT22;20194;50.950;5.346;2023-04-10T04:15:15;11.10;1.00
33903;DHT22;20194;50.950;5.346;2023-04-10T04:17:41;11.20;1.00
33903;DHT22;20194;50.950;5.346;2023-04-10T04:20:08;11.20;1.00
33903;DHT22;20194;50.950;5.346;2023-04-10T04:22:33;11.20;1.00
33903;DHT22;20194;50.950;5.346;2023-04-10T04:24:59;11.20;1.00
33903;DHT22;20194;50.950;5.346;2023-04-10T04:27:25;11.30;1.00
33903;DHT22;20194;50.950;5.346;2023-04-10T04:29:51;11.10;1.00
33903;DHT22;20194;50.950;5.346;2023-04-10T04:32:16;11.30;1.00
33903;DHT22;20194;50.950;5.346;2023-04-10T04:34:42;11.30;1.00
33903;DHT22;20194;50.950;5.346;2023-04-10T04:37:08;11.20;1.00
33903;DHT22;20194;50.950;5.346;2023-04-10T04:39:33;11.20;1.00
33903;DHT22;20194;50.950;5.346;2023-04-10T04:41:59;11.20;1.00
33903;DHT22;20194;50.950;5.346;2023-04-10T04:44:25;11.10;1.00
33903;DHT22;20194;50.950;5.346;2023-04-10T04:46:51;11.20;1.00
33903;DHT22;20194;50.950;5.346;2023-04-10T04:49:17;11.20;1.00
33903;DHT22;20194;50.950;5.346;2023-04-10T04:51:43;11.20;1.00
33903;DHT22;20194;50.950;5.346;2023-04-10T04:54:08;11.20;1.00
33903;DHT22;20194;50.950;5.346;2023-04-10T04:56:34;11.30;1.00
33903;DHT22;20194;50.950;5.346;2023-04-10T04:59:01;11.20;1.00
33903;DHT22;20194;50.950;5.346;2023-04-10T05:01:26;11.30;1.00
33903;DHT22;20194;50.950;5.346;2023-04-10T05:03:52;11.40;1.00
33903;DHT22;20194;50.950;5.346;2023-04-10T05:06:17;11.40;1.00
33903;DHT22;20194;50.950;5.346;2023-04-10T05:08:43;11.20;1.00
33903;DHT22;20194;50.950;5.346;2023-04-10T05:11:09;11.30;1.00
33903;DHT22;20194;50.950;5.346;2023-04-10T05:13:35;11.40;1.00
33903;DHT22;20194;50.950;5.346;2023-04-10T05:16:00;11.30;1.00
33903;DHT22;20194;50.950;5.346;2023-04-10T05:18:27;11.20;1.00
33903;DHT22;20194;50.950;5.346;2023-04-10T05:20:52;11.20;1.00
33903;DHT22;20194;50.950;5.346;2023-04-10T05:23:18;11.20;1.00
33903;DHT22;20194;50.950;5.346;2023-04-10T05:25:44;11.10;1.00
33903;DHT22;20194;50.950;5.346;2023-04-10T05:28:10;11.20;1.00
33903;DHT22;20194;50.950;5.346;2023-04-10T05:30:36;10.90;1.00
33903;DHT22;20194;50.950;5.346;2023-04-10T05:33:02;10.80;1.00
33903;DHT22;20194;50.950;5.346;2023-04-10T05:35:27;10.90;1.00
33903;DHT22;20194;50.950;5.346;2023-04-10T05:37:53;11.00;1.00
33903;DHT22;20194;50.950;5.346;2023-04-10T05:40:20;11.00;1.00
33903;DHT22;20194;50.950;5.346;2023-04-10T05:42:45;11.10;1.00
33903;DHT22;20194;50.950;5.346;2023-04-10T05:45:11;11.00;1.00
33903;DHT22;20194;50.950;5.346;2023-04-10T05:47:39;11.10;1.00
33903;DHT22;20194;50.950;5.346;2023-04-10T05:50:05;11.20;1.00
33903;DHT22;20194;50.950;5.346;2023-04-10T05:52:30;11.20;1.00
33903;DHT22;20194;50.950;5.346;2023-04-10T05:54:57;11.20;1.00
33903;DHT22;20194;50.950;5.346;2023-04-10T05:57:24;11.30;1.00
33903;DHT22;20194;50.950;5.346;2023-04-10T05:59:49;11.10;1.00
33903;DHT22;20194;50.950;5.346;2023-04-10T06:02:15;11.20;1.00
33903;DHT22;20194;50.950;5.346;2023-04-10T06:04:41;11.30;1.00
33903;DHT22;20194;50.950;5.346;2023-04-10T06:07:07;11.30;1.00
33903;DHT22;20194;50.950;5.346;2023-04-10T06:09:33;11.10;1.00
33903;DHT22;20194;50.950;5.346;2023-04-10T06:11:58;11.10;1.00
33903;DHT22;20194;50.950;5.346;2023-04-10T06:14:25;11.10;1.00
33903;DHT22;20194;50.950;5.346;2023-04-10T06:16:51;11.30;1.00
33903;DHT22;20194;50.950;5.346;2023-04-10T06:19:17;11.40;1.00
33903;DHT22;20194;50.950;5.346;2023-04-10T06:21:43;11.40;1.00
33903;DHT22;20194;50.950;5.346;2023-04-10T06:24:08;11.40;1.00
33903;DHT22;20194;50.950;5.346;2023-04-10T06:26:34;11.50;1.00
33903;DHT22;20194;50.950;5.346;2023-04-10T06:29:00;11.60;1.00
33903;DHT22;20194;50.950;5.346;2023-04-10T06:31:26;11.60;1.00
33903;DHT22;20194;50.950;5.346;2023-04-10T06:33:51;11.60;1.00
33903;DHT22;20194;50.950;5.346;2023-04-10T06:36:17;11.20;1.00
33903;DHT22;20194;50.950;5.346;2023-04-10T06:38:43;11.20;1.00
33903;DHT22;20194;50.950;5.346;2023-04-10T06:41:08;11.30;1.00
33903;DHT22;20194;50.950;5.346;2023-04-10T06:43:35;11.10;1.00
33903;DHT22;20194;50.950;5.346;2023-04-10T06:46:04;11.10;1.00
33903;DHT22;20194;50.950;5.346;2023-04-10T06:48:31;11.10;1.00
33903;DHT22;20194;50.950;5.346;2023-04-10T06:50:57;11.00;1.00
33903;DHT22;20194;50.950;5.346;2023-04-10T06:53:25;11.00;1.00
33903;DHT22;20194;50.950;5.346;2023-04-10T06:55:51;11.10;1.00
33903;DHT22;20194;50.950;5.346;2023-04-10T06:58:17;11.00;1.00
33903;DHT22;20194;50.950;5.346;2023-04-10T07:00:43;11.00;1.00
33903;DHT22;20194;50.950;5.346;2023-04-10T07:03:09;11.10;1.00
33903;DHT22;20194;50.950;5.346;2023-04-10T07:05:35;11.00;1.00
33903;DHT22;20194;50.950;5.346;2023-04-10T07:08:00;11.00;1.00
33903;DHT22;20194;50.950;5.346;2023-04-10T07:10:26;11.10;1.00
33903;DHT22;20194;50.950;5.346;2023-04-10T07:12:52;11.20;1.00
33903;DHT22;20194;50.950;5.346;2023-04-10T07:15:17;11.20;1.00
33903;DHT22;20194;50.950;5.346;2023-04-10T07:17:43;11.30;1.00
33903;DHT22;20194;50.950;5.346;2023-04-10T07:20:09;11.30;1.00
33903;DHT22;20194;50.950;5.346;2023-04-10T07:22:35;11.50;1.00
33903;DHT22;20194;50.950;5.346;2023-04-10T07:25:01;11.50;1.00
33903;DHT22;20194;50.950;5.346;2023-04-10T07:27:27;11.50;1.00
33903;DHT22;20194;50.950;5.346;2023-04-10T07:29:54;11.60;1.00
33903;DHT22;20194;50.950;5.346;2023-04-10T07:32:20;11.70;1.00
33903;DHT22;20194;50.950;5.346;2023-04-10T07:34:46;11.80;1.00
33903;DHT22;20194;50.950;5.346;2023-04-10T07:37:13;11.60;1.00
33903;DHT22;20194;50.950;5.346;2023-04-10T07:39:38;11.70;1.00
33903;DHT22;20194;50.950;5.346;2023-04-10T07:42:05;11.70;1.00
33903;DHT22;20194;50.950;5.346;2023-04-10T07:44:30;11.70;1.00
33903;DHT22;20194;50.950;5.346;2023-04-10T07:46:56;11.90;1.00
33903;DHT22;20194;50.950;5.346;2023-04-10T07:49:23;12.00;1.00
33903;DHT22;20194;50.950;5.346;2023-04-10T07:51:49;12.00;1.00
33903;DHT22;20194;50.950;5.346;2023-04-10T07:54:14;12.10;1.00
33903;DHT22;20194;50.950;5.346;2023-04-10T07:56:40;12.20;1.00
33903;DHT22;20194;50.950;5.346;2023-04-10T07:59:06;12.30;1.00
33903;DHT22;20194;50.950;5.346;2023-04-10T08:01:31;12.30;1.00
33903;DHT22;20194;50.950;5.346;2023-04-10T08:03:58;12.50;1.00
33903;DHT22;20194;50.950;5.346;2023-04-10T08:06:24;12.60;1.00
33903;DHT22;20194;50.950;5.346;2023-04-10T08:08:50;12.60;1.00
33903;DHT22;20194;50.950;5.346;2023-04-10T08:11:28;12.70;1.00
33903;DHT22;20194;50.950;5.346;2023-04-10T08:13:55;12.90;1.00
33903;DHT22;20194;50.950;5.346;2023-04-10T08:16:27;13.00;1.00
33903;DHT22;20194;50.950;5.346;2023-04-10T08:18:55;13.10;1.00
33903;DHT22;20194;50.950;5.346;2023-04-10T08:21:26;13.10;1.00
33903;DHT22;20194;50.950;5.346;2023-04-10T08:23:53;13.10;1.00
33903;DHT22;20194;50.950;5.346;2023-04-10T08:26:19;13.20;1.00
33903;DHT22;20194;50.950;5.346;2023-04-10T08:28:49;13.10;1.00
33903;DHT22;20194;50.950;5.346;2023-04-10T08:31:17;13.30;1.00
33903;DHT22;20194;50.950;5.346;2023-04-10T08:33:43;13.30;1.00
33903;DHT22;20194;50.950;5.346;2023-04-10T08:36:09;13.30;1.00
33903;DHT22;20194;50.950;5.346;2023-04-10T08:38:35;13.20;1.00
33903;DHT22;20194;50.950;5.346;2023-04-10T08:41:00;13.20;1.00
33903;DHT22;20194;50.950;5.346;2023-04-10T08:43:26;13.20;1.00
33903;DHT22;20194;50.950;5.346;2023-04-10T08:45:52;13.30;1.00
33903;DHT22;20194;50.950;5.346;2023-04-10T08:48:18;13.20;1.00
33903;DHT22;20194;50.950;5.346;2023-04-10T08:50:46;13.30;1.00
33903;DHT22;20194;50.950;5.346;2023-04-10T08:53:13;13.30;1.00
33903;DHT22;20194;50.950;5.346;2023-04-10T08:55:40;13.40;1.00
33903;DHT22;20194;50.950;5.346;2023-04-10T08:58:07;13.50;1.00
33903;DHT22;20194;50.950;5.346;2023-04-10T09:00:34;13.50;1.00
33903;DHT22;20194;50.950;5.346;2023-04-10T09:03:03;13.60;1.00
33903;DHT22;20194;50.950;5.346;2023-04-10T09:05:30;13.60;1.00
33903;DHT22;20194;50.950;5.346;2023-04-10T09:07:56;13.70;1.00
33903;DHT22;20194;50.950;5.346;2023-04-10T09:10:22;13.80;1.00
33903;DHT22;20194;50.950;5.346;2023-04-10T09:12:48;13.80;1.00
33903;DHT22;20194;50.950;5.346;2023-04-10T09:15:14;13.80;1.00
33903;DHT22;20194;50.950;5.346;2023-04-10T09:18:00;13.90;1.00
33903;DHT22;20194;50.950;5.346;2023-04-10T09:20:28;13.90;1.00
33903;DHT22;20194;50.950;5.346;2023-04-10T09:22:54;14.00;1.00
33903;DHT22;20194;50.950;5.346;2023-04-10T09:25:35;14.00;1.00
33903;DHT22;20194;50.950;5.346;2023-04-10T09:28:07;14.00;1.00
33903;DHT22;20194;50.950;5.346;2023-04-10T09:30:39;14.00;1.00
33903;DHT22;20194;50.950;5.346;2023-04-10T09:33:26;14.00;1.00
33903;DHT22;20194;50.950;5.346;2023-04-10T09:35:53;14.10;1.00
33903;DHT22;20194;50.950;5.346;2023-04-10T09:38:21;14.20;1.00
33903;DHT22;20194;50.950;5.346;2023-04-10T09:40:48;14.20;1.00
33903;DHT22;20194;50.950;5.346;2023-04-10T09:43:22;14.30;1.00
33903;DHT22;20194;50.950;5.346;2023-04-10T09:45:49;14.20;1.00
33903;DHT22;20194;50.950;5.346;2023-04-10T09:48:15;14.20;1.00
33903;DHT22;20194;50.950;5.346;2023-04-10T09:50:40;14.20;1.00
33903;DHT22;20194;50.950;5.346;2023-04-10T09:53:14;14.20;1.00
33903;DHT22;20194;50.950;5.346;2023-04-10T09:55:42;14.20;1.00
33903;DHT22;20194;50.950;5.346;2023-04-10T09:58:09;14.20;1.00
33903;DHT22;20194;50.950;5.346;2023-04-10T10:00:46;14.30;1.00
33903;DHT22;20194;50.950;5.346;2023-04-10T10:03:15;14.30;1.00
33903;DHT22;20194;50.950;5.346;2023-04-10T10:05:48;14.30;1.00
33903;DHT22;20194;50.950;5.346;2023-04-10T10:08:14;14.50;1.00
33903;DHT22;20194;50.950;5.346;2023-04-10T10:10:46;14.70;1.00
33903;DHT22;20194;50.950;5.346;2023-04-10T10:13:21;14.80;1.00
33903;DHT22;20194;50.950;5.346;2023-04-10T10:18:46;14.80;1.00
33903;DHT22;20194;50.950;5.346;2023-04-10T10:21:13;14.90;1.00
33903;DHT22;20194;50.950;5.346;2023-04-10T10:23:39;15.10;1.00
33903;DHT22;20194;50.950;5.346;2023-04-10T10:26:07;15.20;1.00
33903;DHT22;20194;50.950;5.346;2023-04-10T10:28:34;15.20;1.00
33903;DHT22;20194;50.950;5.346;2023-04-10T10:31:02;15.30;1.00
33903;DHT22;20194;50.950;5.346;2023-04-10T10:33:29;15.30;1.00
33903;DHT22;20194;50.950;5.346;2023-04-10T10:35:59;15.40;1.00
33903;DHT22;20194;50.950;5.346;2023-04-10T10:38:26;15.40;1.00
33903;DHT22;20194;50.950;5.346;2023-04-10T10:41:15;15.50;1.00
33903;DHT22;20194;50.950;5.346;2023-04-10T10:44:05;15.60;1.00
33903;DHT22;20194;50.950;5.346;2023-04-10T10:46:49;15.60;1.00
33903;DHT22;20194;50.950;5.346;2023-04-10T10:49:15;15.70;1.00
33903;DHT22;20194;50.950;5.346;2023-04-10T10:51:47;15.80;1.00
33903;DHT22;20194;50.950;5.346;2023-04-10T10:54:33;15.90;1.00
33903;DHT22;20194;50.950;5.346;2023-04-10T10:57:00;16.00;1.00
33903;DHT22;20194;50.950;5.346;2023-04-10T11:02:18;16.20;1.00
33903;DHT22;20194;50.950;5.346;2023-04-10T11:04:45;16.40;1.00
33903;DHT22;20194;50.950;5.346;2023-04-10T11:07:11;16.70;1.00
33903;DHT22;20194;50.950;5.346;2023-04-10T11:12:13;16.90;99.90
33903;DHT22;20194;50.950;5.346;2023-04-10T11:14:41;17.00;99.90
33903;DHT22;20194;50.950;5.346;2023-04-10T11:17:06;17.10;1.00
33903;DHT22;20194;50.950;5.346;2023-04-10T11:19:58;17.30;99.90
33903;DHT22;20194;50.950;5.346;2023-04-10T11:22:25;17.20;99.90
33903;DHT22;20194;50.950;5.346;2023-04-10T11:24:52;17.30;99.90
33903;DHT22;20194;50.950;5.346;2023-04-10T11:27:45;17.30;99.90
33903;DHT22;20194;50.950;5.346;2023-04-10T11:32:53;17.40;62.50
33903;DHT22;20194;50.950;5.346;2023-04-10T11:35:19;17.50;1.00
33903;DHT22;20194;50.950;5.346;2023-04-10T11:37:46;17.50;1.00
33903;DHT22;20194;50.950;5.346;2023-04-10T11:40:12;17.50;1.00
33903;DHT22;20194;50.950;5.346;2023-04-10T11:42:38;17.70;1.00
33903;DHT22;20194;50.950;5.346;2023-04-10T11:45:26;17.80;1.00
33903;DHT22;20194;50.950;5.346;2023-04-10T11:47:52;17.90;1.00
33903;DHT22;20194;50.950;5.346;2023-04-10T11:50:19;17.80;99.90
33903;DHT22;20194;50.950;5.346;2023-04-10T11:52:48;17.80;99.90
33903;DHT22;20194;50.950;5.346;2023-04-10T11:55:14;17.70;99.90
33903;DHT22;20194;50.950;5.346;2023-04-10T11:57:41;17.70;99.90
33903;DHT22;20194;50.950;5.346;2023-04-10T12:00:07;17.60;99.90
33903;DHT22;20194;50.950;5.346;2023-04-10T12:02:33;17.50;99.90
33903;DHT22;20194;50.950;5.346;2023-04-10T12:04:59;17.50;99.90
33903;DHT22;20194;50.950;5.346;2023-04-10T12:07:25;17.60;99.90
33903;DHT22;20194;50.950;5.346;2023-04-10T12:09:56;17.60;99.90
33903;DHT22;20194;50.950;5.346;2023-04-10T12:12:34;17.80;99.90
33903;DHT22;20194;50.950;5.346;2023-04-10T12:15:00;17.70;99.90
33903;DHT22;20194;50.950;5.346;2023-04-10T12:17:26;17.60;99.90
33903;DHT22;20194;50.950;5.346;2023-04-10T12:19:52;17.70;99.90
33903;DHT22;20194;50.950;5.346;2023-04-10T12:22:18;17.70;99.90
33903;DHT22;20194;50.950;5.346;2023-04-10T12:24:49;17.80;1.00
33903;DHT22;20194;50.950;5.346;2023-04-10T12:27:18;17.90;1.00
33903;DHT22;20194;50.950;5.346;2023-04-10T12:29:46;18.10;1.00
33903;DHT22;20194;50.950;5.346;2023-04-10T12:32:12;18.10;99.90
33903;DHT22;20194;50.950;5.346;2023-04-10T12:34:38;18.10;99.90
33903;DHT22;20194;50.950;5.346;2023-04-10T12:37:05;18.10;99.90
33903;DHT22;20194;50.950;5.346;2023-04-10T12:39:30;18.00;99.90
33903;DHT22;20194;50.950;5.346;2023-04-10T12:42:15;18.10;1.00
33903;DHT22;20194;50.950;5.346;2023-04-10T12:44:54;18.20;99.90
33903;DHT22;20194;50.950;5.346;2023-04-10T12:47:21;18.30;99.90
33903;DHT22;20194;50.950;5.346;2023-04-10T12:50:06;18.20;99.90
33903;DHT22;20194;50.950;5.346;2023-04-10T12:52:33;18.30;99.90
33903;DHT22;20194;50.950;5.346;2023-04-10T12:57:43;18.10;99.90
33903;DHT22;20194;50.950;5.346;2023-04-10T13:00:11;18.10;99.90
33903;DHT22;20194;50.950;5.346;2023-04-10T13:02:38;18.10;99.90
33903;DHT22;20194;50.950;5.346;2023-04-10T13:05:05;18.00;99.90
33903;DHT22;20194;50.950;5.346;2023-04-10T13:07:31;18.00;99.90
33903;DHT22;20194;50.950;5.346;2023-04-10T13:09:58;17.90;99.90
33903;DHT22;20194;50.950;5.346;2023-04-10T13:12:24;18.00;1.00
33903;DHT22;20194;50.950;5.346;2023-04-10T13:14:51;18.00;99.90
33903;DHT22;20194;50.950;5.346;2023-04-10T13:17:22;17.80;99.90
33903;DHT22;20194;50.950;5.346;2023-04-10T13:19:48;17.80;1.00
33903;DHT22;20194;50.950;5.346;2023-04-10T13:22:14;17.70;99.90
33903;DHT22;20194;50.950;5.346;2023-04-10T13:24:41;17.70;1.00
33903;DHT22;20194;50.950;5.346;2023-04-10T13:27:07;17.70;1.00
33903;DHT22;20194;50.950;5.346;2023-04-10T13:29:34;17.70;1.00
33903;DHT22;20194;50.950;5.346;2023-04-10T13:32:01;17.60;1.00
33903;DHT22;20194;50.950;5.346;2023-04-10T13:34:30;17.70;14.90
33903;DHT22;20194;50.950;5.346;2023-04-10T13:36:55;17.80;15.70
33903;DHT22;20194;50.950;5.346;2023-04-10T13:39:21;17.60;99.90
33903;DHT22;20194;50.950;5.346;2023-04-10T13:41:47;17.60;81.10
33903;DHT22;20194;50.950;5.346;2023-04-10T13:44:13;17.50;50.80
33903;DHT22;20194;50.950;5.346;2023-04-10T13:46:39;17.50;99.90
33903;DHT22;20194;50.950;5.346;2023-04-10T13:49:04;17.50;99.90
33903;DHT22;20194;50.950;5.346;2023-04-10T13:51:30;17.50;99.90
33903;DHT22;20194;50.950;5.346;2023-04-10T13:53:56;17.40;99.90
33903;DHT22;20194;50.950;5.346;2023-04-10T13:56:21;17.40;99.90
33903;DHT22;20194;50.950;5.346;2023-04-10T13:58:48;17.30;99.90
33903;DHT22;20194;50.950;5.346;2023-04-10T14:01:13;17.30;99.90
33903;DHT22;20194;50.950;5.346;2023-04-10T14:03:39;17.30;1.00
33903;DHT22;20194;50.950;5.346;2023-04-10T14:06:05;17.20;1.00
33903;DHT22;20194;50.950;5.346;2023-04-10T14:08:31;17.10;1.00
33903;DHT22;20194;50.950;5.346;2023-04-10T14:10:57;17.00;1.00
33903;DHT22;20194;50.950;5.346;2023-04-10T14:13:23;16.80;1.00
33903;DHT22;20194;50.950;5.346;2023-04-10T14:15:48;16.80;1.00
33903;DHT22;20194;50.950;5.346;2023-04-10T14:18:16;16.70;1.00
33903;DHT22;20194;50.950;5.346;2023-04-10T14:20:43;16.70;1.00
33903;DHT22;20194;50.950;5.346;2023-04-10T14:23:09;16.50;1.00
33903;DHT22;20194;50.950;5.346;2023-04-10T14:25:41;16.50;1.00
33903;DHT22;20194;50.950;5.346;2023-04-10T14:28:06;16.40;1.00
33903;DHT22;20194;50.950;5.346;2023-04-10T14:30:33;16.30;1.00
33903;DHT22;20194;50.950;5.346;2023-04-10T14:32:58;16.20;1.00
33903;DHT22;20194;50.950;5.346;2023-04-10T14:35:24;16.10;1.00
33903;DHT22;20194;50.950;5.346;2023-04-10T14:37:50;16.10;1.00
33903;DHT22;20194;50.950;5.346;2023-04-10T14:40:15;16.10;1.00
33903;DHT22;20194;50.950;5.346;2023-04-10T14:42:41;16.10;1.00
33903;DHT22;20194;50.950;5.346;2023-04-10T14:45:08;16.00;1.00
33903;DHT22;20194;50.950;5.346;2023-04-10T14:47:33;16.00;1.00
33903;DHT22;20194;50.950;5.346;2023-04-10T14:50:00;16.00;1.00
33903;DHT22;20194;50.950;5.346;2023-04-10T14:52:26;16.00;1.00
33903;DHT22;20194;50.950;5.346;2023-04-10T14:54:52;16.10;1.00
33903;DHT22;20194;50.950;5.346;2023-04-10T14:57:18;16.10;1.00
33903;DHT22;20194;50.950;5.346;2023-04-10T14:59:43;16.10;1.00
33903;DHT22;20194;50.950;5.346;2023-04-10T15:02:09;16.10;1.00
33903;DHT22;20194;50.950;5.346;2023-04-10T15:04:35;16.10;1.00
33903;DHT22;20194;50.950;5.346;2023-04-10T15:07:01;16.10;1.00
33903;DHT22;20194;50.950;5.346;2023-04-10T15:09:26;16.20;1.00
33903;DHT22;20194;50.950;5.346;2023-04-10T15:11:52;16.20;1.00
33903;DHT22;20194;50.950;5.346;2023-04-10T15:14:19;16.20;1.00
33903;DHT22;20194;50.950;5.346;2023-04-10T15:16:45;16.30;1.00
33903;DHT22;20194;50.950;5.346;2023-04-10T15:19:11;16.40;1.00
33903;DHT22;20194;50.950;5.346;2023-04-10T15:21:37;16.40;1.00
33903;DHT22;20194;50.950;5.346;2023-04-10T15:24:03;16.40;1.00
33903;DHT22;20194;50.950;5.346;2023-04-10T15:26:29;16.40;1.00
33903;DHT22;20194;50.950;5.346;2023-04-10T15:28:55;16.40;1.00
33903;DHT22;20194;50.950;5.346;2023-04-10T15:31:21;16.40;1.00
33903;DHT22;20194;50.950;5.346;2023-04-10T15:33:47;16.30;1.00
33903;DHT22;20194;50.950;5.346;2023-04-10T15:36:12;16.20;1.00
33903;DHT22;20194;50.950;5.346;2023-04-10T15:38:39;16.20;1.00
33903;DHT22;20194;50.950;5.346;2023-04-10T15:41:11;16.20;1.00
33903;DHT22;20194;50.950;5.346;2023-04-10T15:43:37;16.20;1.00
33903;DHT22;20194;50.950;5.346;2023-04-10T15:46:03;16.20;1.00
33903;DHT22;20194;50.950;5.346;2023-04-10T15:48:29;16.20;1.00
33903;DHT22;20194;50.950;5.346;2023-04-10T15:50:55;16.20;1.00
33903;DHT22;20194;50.950;5.346;2023-04-10T15:53:21;16.20;1.00
33903;DHT22;20194;50.950;5.346;2023-04-10T15:55:46;15.90;1.00
33903;DHT22;20194;50.950;5.346;2023-04-10T15:58:12;15.80;1.00
33903;DHT22;20194;50.950;5.346;2023-04-10T16:00:38;15.70;1.00
33903;DHT22;20194;50.950;5.346;2023-04-10T16:03:04;15.60;1.00
33903;DHT22;20194;50.950;5.346;2023-04-10T16:05:30;15.60;1.00
33903;DHT22;20194;50.950;5.346;2023-04-10T16:07:56;15.60;1.00
33903;DHT22;20194;50.950;5.346;2023-04-10T16:10:22;15.50;1.00
33903;DHT22;20194;50.950;5.346;2023-04-10T16:12:47;15.50;1.00